createdAt,value
2023-01-01T00:00:08.381Z,100790.53
2023-01-01T00:02:39.141Z,100799.59
2023-01-01T00:05:08.141Z,100798.91
2023-01-01T00:07:36.165Z,100797.84
2023-01-01T00:10:21.967Z,100803.31
2023-01-01T00:12:49.880Z,100809.72
2023-01-01T00:15:18.103Z,100813.31
2023-01-01T00:17:47.424Z,100816.84
2023-01-01T00:20:15.336Z,100806.72
2023-01-01T00:22:54.572Z,100810.31
2023-01-01T00:25:23.308Z,100802.56
2023-01-01T00:27:51.653Z,100811.59
2023-01-01T00:30:19.889Z,100824.16
2023-01-01T00:32:55.745Z,100809.88
2023-01-01T00:35:24.747Z,100813.41
2023-01-01T00:37:52.818Z,100818.84
2023-01-01T00:40:20.746Z,100817.00
2023-01-01T00:42:48.663Z,100821.38
2023-01-01T00:45:21.327Z,100820.44
2023-01-01T00:47:52.999Z,100824.59
2023-01-01T00:50:21.655Z,100821.84
2023-01-01T00:52:50.033Z,100827.31
2023-01-01T00:55:18.264Z,100823.09
2023-01-01T00:57:46.095Z,100813.13
2023-01-01T01:00:15.383Z,100826.28
2023-01-01T01:02:43.387Z,100827.16
2023-01-01T01:05:12.837Z,100835.25
2023-01-01T01:07:40.843Z,100833.81
2023-01-01T01:10:09.921Z,100834.84
2023-01-01T01:12:37.800Z,100835.28
2023-01-01T01:15:08.830Z,100848.72
2023-01-01T01:17:37.085Z,100845.75
2023-01-01T01:20:06.283Z,100835.25
2023-01-01T01:22:35.677Z,100841.03
2023-01-01T01:25:04.829Z,100849.22
2023-01-01T01:27:32.803Z,100845.78
2023-01-01T01:30:01.085Z,100847.84
2023-01-01T01:32:28.983Z,100847.91
2023-01-01T01:34:56.846Z,100848.94
2023-01-01T01:37:24.672Z,100841.50
2023-01-01T01:39:54.380Z,100843.94
2023-01-01T01:42:23.023Z,100842.34
2023-01-01T01:44:54.816Z,100846.66
2023-01-01T01:47:27.695Z,100843.03
2023-01-01T01:49:58.915Z,100848.91
2023-01-01T01:52:28.938Z,100842.66
2023-01-01T01:54:58.995Z,100832.97
2023-01-01T01:57:27.321Z,100841.19
2023-01-01T01:59:57.678Z,100842.78
2023-01-01T02:02:33.733Z,100838.41
2023-01-01T02:05:02.441Z,100849.34
2023-01-01T02:07:32.831Z,100841.88
2023-01-01T02:10:03.264Z,100850.13
2023-01-01T02:12:31.244Z,100845.34
2023-01-01T02:14:59.256Z,100855.09
2023-01-01T02:17:39.080Z,100848.84
2023-01-01T02:20:26.671Z,100864.81
2023-01-01T02:23:11.618Z,100849.28
2023-01-01T02:25:50.181Z,100840.47
2023-01-01T02:28:27.321Z,100845.75
2023-01-01T02:30:58.297Z,100846.59
2023-01-01T02:33:27.843Z,100842.44
2023-01-01T02:36:00.102Z,100844.19
2023-01-01T02:38:31.338Z,100834.41
2023-01-01T02:41:03.184Z,100835.19
2023-01-01T02:43:31.049Z,100828.38
2023-01-01T02:46:00.330Z,100834.94
2023-01-01T02:48:43.640Z,100835.84
2023-01-01T02:51:20.192Z,100826.41
2023-01-01T02:53:56.450Z,100834.78
2023-01-01T02:56:34.273Z,100821.88
2023-01-01T02:59:32.249Z,100829.25
2023-01-01T03:02:10.058Z,100823.69
2023-01-01T03:04:49.685Z,100825.13
2023-01-01T03:07:28.423Z,100833.06
2023-01-01T03:10:04.683Z,100838.31
2023-01-01T03:12:43.641Z,100845.47
2023-01-01T03:15:23.280Z,100847.44
2023-01-01T03:18:00.336Z,100826.50
2023-01-01T03:20:34.444Z,100839.63
2023-01-01T03:23:07.842Z,100842.22
2023-01-01T03:25:40.308Z,100842.72
2023-01-01T03:28:12.590Z,100842.97
2023-01-01T03:30:42.975Z,100845.69
2023-01-01T03:33:17.838Z,100840.47
2023-01-01T03:35:51.482Z,100839.63
2023-01-01T03:38:24.123Z,100838.78
2023-01-01T03:40:55.492Z,100838.88
2023-01-01T03:43:35.144Z,100842.00
2023-01-01T03:46:05.665Z,100840.59
2023-01-01T03:49:02.143Z,100841.91
2023-01-01T03:51:44.459Z,100859.38
2023-01-01T03:54:21.100Z,100858.22
2023-01-01T03:56:55.808Z,100871.03
2023-01-01T03:59:30.905Z,100871.44
2023-01-01T04:01:59.620Z,100874.97
2023-01-01T04:04:29.583Z,100885.19
2023-01-01T04:07:09.347Z,100888.75
2023-01-01T04:09:49.747Z,100895.41
2023-01-01T04:12:19.100Z,100895.19
2023-01-01T04:14:47.083Z,100899.56
2023-01-01T04:17:15.052Z,100901.56
2023-01-01T04:19:46.357Z,100915.41
2023-01-01T04:22:20.011Z,100898.84
2023-01-01T04:24:47.932Z,100906.81
2023-01-01T04:27:15.820Z,100903.94
2023-01-01T04:29:43.795Z,100906.06
2023-01-01T04:32:11.601Z,100913.88
2023-01-01T04:34:39.508Z,100907.47
2023-01-01T04:37:13.169Z,100917.97
2023-01-01T04:39:41.698Z,100921.91
2023-01-01T04:42:09.643Z,100914.41
2023-01-01T04:44:37.486Z,100920.78
2023-01-01T04:47:05.923Z,100921.78
2023-01-01T04:49:33.836Z,100916.41
2023-01-01T04:52:01.720Z,100920.91
2023-01-01T04:54:31.010Z,100928.44
2023-01-01T04:56:58.860Z,100924.91
2023-01-01T04:59:26.739Z,100923.66
2023-01-01T05:01:54.800Z,100924.91
2023-01-01T05:04:22.844Z,100929.69
2023-01-01T05:06:50.688Z,100923.91
2023-01-01T05:09:18.557Z,100923.19
2023-01-01T05:11:48.016Z,100924.94
2023-01-01T05:14:15.918Z,100929.81
2023-01-01T05:16:43.837Z,100930.44
2023-01-01T05:19:11.759Z,100932.16
2023-01-01T05:21:41.546Z,100927.97
2023-01-01T05:24:11.364Z,100935.06
2023-01-01T05:26:41.765Z,100934.47
2023-01-01T05:29:15.922Z,100939.47
2023-01-01T05:31:44.328Z,100952.03
2023-01-01T05:34:12.266Z,100943.47
2023-01-01T05:36:40.215Z,100948.88
2023-01-01T05:39:10.340Z,100948.06
2023-01-01T05:41:38.361Z,100947.56
2023-01-01T05:44:08.818Z,100948.66
2023-01-01T05:46:38.333Z,100943.41
2023-01-01T05:49:06.167Z,100959.50
2023-01-01T05:54:01.149Z,100953.75
2023-01-01T05:56:29.119Z,100946.78
2023-01-01T05:58:57.486Z,100955.34
2023-01-01T06:01:27.475Z,100949.06
2023-01-01T06:03:59.993Z,100952.06
2023-01-01T06:06:30.993Z,100956.88
2023-01-01T06:09:00.266Z,100954.44
2023-01-01T06:11:29.074Z,100947.16
2023-01-01T06:13:59.403Z,100956.75
2023-01-01T06:16:28.868Z,100949.34
2023-01-01T06:18:58.897Z,100963.69
2023-01-01T06:21:27.923Z,100948.50
2023-01-01T06:23:57.320Z,100975.88
2023-01-01T06:26:27.937Z,100976.84
2023-01-01T06:28:56.467Z,100973.31
2023-01-01T06:31:25.364Z,100983.31
2023-01-01T06:33:53.550Z,100985.81
2023-01-01T06:36:24.827Z,100975.00
2023-01-01T06:38:54.362Z,100966.53
2023-01-01T06:41:24.187Z,100973.06
2023-01-01T06:43:52.068Z,100974.72
2023-01-01T06:46:21.970Z,100974.03
2023-01-01T06:48:51.519Z,100981.03
2023-01-01T06:51:22.426Z,100988.06
2023-01-01T06:53:51.015Z,100989.41
2023-01-01T06:56:19.705Z,100983.53
2023-01-01T06:58:48.269Z,100984.63
2023-01-01T07:01:18.518Z,100985.06
2023-01-01T07:03:52.148Z,100985.13
2023-01-01T07:06:20.303Z,100985.31
2023-01-01T07:08:49.527Z,100992.69
2023-01-01T07:11:17.637Z,101003.75
2023-01-01T07:13:45.842Z,100997.81
2023-01-01T07:16:14.081Z,101004.06
2023-01-01T07:18:42.698Z,101001.16
2023-01-01T07:21:29.435Z,101007.66
2023-01-01T07:23:59.988Z,101014.28
2023-01-01T07:26:29.539Z,101029.53
2023-01-01T07:29:04.522Z,101030.69
2023-01-01T07:31:35.308Z,101027.41
2023-01-01T07:34:03.228Z,101030.81
2023-01-01T07:36:31.129Z,101024.72
2023-01-01T07:39:00.392Z,101031.06
2023-01-01T07:41:28.452Z,101034.00
2023-01-01T07:43:56.342Z,101032.47
2023-01-01T07:46:24.391Z,101033.53
2023-01-01T07:48:52.391Z,101044.25
2023-01-01T07:51:20.299Z,101041.63
2023-01-01T07:53:48.251Z,101061.91
2023-01-01T07:56:17.590Z,101071.94
2023-01-01T07:58:45.514Z,101071.34
2023-01-01T08:01:14.854Z,101061.09
2023-01-01T08:03:43.243Z,101075.59
2023-01-01T08:06:12.591Z,101061.94
2023-01-01T08:08:40.601Z,101064.16
2023-01-01T08:11:08.692Z,101068.63
2023-01-01T08:13:38.036Z,101069.06
2023-01-01T08:16:06.968Z,101070.75
2023-01-01T08:18:34.828Z,101078.38
2023-01-01T08:21:02.866Z,101063.94
2023-01-01T08:23:30.845Z,101073.81
2023-01-01T08:26:00.580Z,101069.63
2023-01-01T08:28:28.612Z,101083.97
2023-01-01T08:30:57.935Z,101080.50
2023-01-01T08:33:26.203Z,101096.91
2023-01-01T08:35:54.904Z,101097.31
2023-01-01T08:38:22.937Z,101104.75
2023-01-01T08:40:50.928Z,101107.59
2023-01-01T08:43:18.831Z,101098.78
2023-01-01T08:45:46.885Z,101113.19
2023-01-01T08:48:16.059Z,101114.16
2023-01-01T08:50:43.907Z,101107.03
2023-01-01T08:53:11.776Z,101109.97
2023-01-01T08:55:39.668Z,101122.22
2023-01-01T08:58:08.500Z,101123.44
2023-01-01T09:00:36.524Z,101124.31
2023-01-01T09:03:04.604Z,101118.22
2023-01-01T09:05:33.959Z,101122.00
2023-01-01T09:08:01.877Z,101126.28
2023-01-01T09:10:29.753Z,101142.31
2023-01-01T09:12:57.683Z,101146.22
2023-01-01T09:15:25.589Z,101150.66
2023-01-01T09:17:53.539Z,101143.53
2023-01-01T09:20:21.503Z,101155.31
2023-01-01T09:22:50.977Z,101174.16
2023-01-01T09:25:18.943Z,101177.56
2023-01-01T09:27:46.888Z,101179.22
2023-01-01T09:30:16.450Z,101181.50
2023-01-01T09:32:44.385Z,101184.06
2023-01-01T09:35:12.284Z,101178.94
2023-01-01T09:37:40.203Z,101174.94
2023-01-01T09:40:24.834Z,101188.34
2023-01-01T09:43:01.419Z,101179.81
2023-01-01T09:45:32.584Z,101179.47
2023-01-01T09:48:07.274Z,101181.44
2023-01-01T09:50:40.504Z,101173.34
2023-01-01T09:53:14.711Z,101182.16
2023-01-01T09:55:48.716Z,101179.66
2023-01-01T09:58:17.218Z,101181.91
2023-01-01T10:00:48.378Z,101178.47
2023-01-01T10:03:36.368Z,101183.94
2023-01-01T10:06:16.584Z,101183.31
2023-01-01T10:08:57.931Z,101189.13
2023-01-01T10:11:32.964Z,101186.47
2023-01-01T10:14:07.135Z,101204.78
2023-01-01T10:16:41.039Z,101198.88
2023-01-01T10:19:22.941Z,101195.31
2023-01-01T10:21:54.148Z,101188.56
2023-01-01T10:24:35.839Z,101188.78
2023-01-01T10:27:06.958Z,101214.44
2023-01-01T10:29:41.761Z,101205.72
2023-01-01T10:32:22.003Z,101216.59
2023-01-01T10:34:52.192Z,101206.72
2023-01-01T10:37:20.665Z,101197.31
2023-01-01T10:39:49.656Z,101218.28
2023-01-01T10:42:19.143Z,101229.59
2023-01-01T10:44:47.543Z,101207.19
2023-01-01T10:47:25.514Z,101211.75
2023-01-01T10:49:59.252Z,101216.16
2023-01-01T10:52:32.729Z,101219.00
2023-01-01T10:55:01.235Z,101212.97
2023-01-01T10:57:35.553Z,101213.59
2023-01-01T11:00:22.484Z,101199.75
2023-01-01T11:03:13.122Z,101213.59
2023-01-01T11:06:11.217Z,101219.13
2023-01-01T11:08:52.464Z,101235.34
2023-01-01T11:11:26.595Z,101227.06
2023-01-01T11:13:59.224Z,101236.88
2023-01-01T11:16:28.380Z,101246.13
2023-01-01T11:19:03.806Z,101245.53
2023-01-01T11:21:32.238Z,101254.59
2023-01-01T11:24:19.960Z,101266.56
2023-01-01T11:26:54.368Z,101263.97
2023-01-01T11:29:29.884Z,101267.69
2023-01-01T11:32:00.692Z,101239.59
2023-01-01T11:34:35.181Z,101245.16
2023-01-01T11:37:13.067Z,101261.06
2023-01-01T11:39:44.155Z,101247.75
2023-01-01T11:42:18.932Z,101248.69
2023-01-01T11:44:50.951Z,101230.19
2023-01-01T11:47:26.056Z,101248.03
2023-01-01T11:50:01.152Z,101238.56
2023-01-01T11:52:37.628Z,101255.88
2023-01-01T11:55:15.911Z,101266.34
2023-01-01T11:57:51.266Z,101258.50
2023-01-01T12:00:20.878Z,101259.66
2023-01-01T12:02:54.625Z,101257.66
2023-01-01T12:05:26.071Z,101259.91
2023-01-01T12:07:55.147Z,101273.75
2023-01-01T12:10:27.327Z,101274.38
2023-01-01T12:13:02.710Z,101277.22
2023-01-01T12:15:38.190Z,101290.53
2023-01-01T12:18:14.039Z,101283.31
2023-01-01T12:20:47.924Z,101280.16
2023-01-01T12:23:17.851Z,101280.78
2023-01-01T12:25:53.422Z,101281.88
2023-01-01T12:28:33.342Z,101289.28
2023-01-01T12:31:10.042Z,101276.44
2023-01-01T12:33:52.853Z,101264.06
2023-01-01T12:36:31.169Z,101269.03
2023-01-01T12:39:35.357Z,101266.69
2023-01-01T12:42:10.096Z,101262.63
2023-01-01T12:44:47.891Z,101245.19
2023-01-01T12:47:32.110Z,101261.16
2023-01-01T12:50:10.614Z,101255.34
2023-01-01T12:52:50.581Z,101258.44
2023-01-01T12:55:44.645Z,101257.66
2023-01-01T12:58:18.918Z,101261.91
2023-01-01T13:00:56.064Z,101263.34
2023-01-01T13:03:29.670Z,101257.44
2023-01-01T13:06:00.022Z,101266.47
2023-01-01T13:08:27.944Z,101263.84
2023-01-01T13:10:59.323Z,101271.47
2023-01-01T13:13:27.758Z,101273.59
2023-01-01T13:15:56.796Z,101276.09
2023-01-01T13:18:29.542Z,101278.00
2023-01-01T13:21:03.672Z,101290.09
2023-01-01T13:24:02.002Z,101283.28
2023-01-01T13:26:34.303Z,101290.34
2023-01-01T13:29:44.489Z,101296.38
2023-01-01T13:32:14.142Z,101311.13
2023-01-01T13:35:18.156Z,101311.25
2023-01-01T13:37:47.867Z,101304.19
2023-01-01T13:40:53.375Z,101318.34
2023-01-01T13:43:31.949Z,101332.53
2023-01-01T13:46:13.097Z,101341.06
2023-01-01T13:49:21.747Z,101350.56
2023-01-01T13:52:18.237Z,101358.53
2023-01-01T13:55:16.274Z,101359.34
2023-01-01T13:58:10.501Z,101366.53
2023-01-01T14:00:55.881Z,101366.78
2023-01-01T14:03:27.586Z,101366.31
2023-01-01T14:05:59.375Z,101378.94
2023-01-01T14:08:33.513Z,101372.47
2023-01-01T14:11:02.946Z,101380.53
2023-01-01T14:13:32.580Z,101387.41
2023-01-01T14:16:03.698Z,101383.66
2023-01-01T14:18:35.166Z,101373.50
2023-01-01T14:21:03.836Z,101380.88
2023-01-01T14:23:36.491Z,101369.63
2023-01-01T14:26:08.755Z,101367.97
2023-01-01T14:28:37.366Z,101375.94
2023-01-01T14:31:11.013Z,101381.06
2023-01-01T14:33:39.903Z,101391.28
2023-01-01T14:36:17.848Z,101384.50
2023-01-01T14:38:48.986Z,101378.50
2023-01-01T14:41:22.696Z,101395.59
2023-01-01T14:43:53.364Z,101394.47
2023-01-01T14:46:23.642Z,101403.28
2023-01-01T14:48:54.799Z,101405.53
2023-01-01T14:51:24.914Z,101402.56
2023-01-01T14:53:56.956Z,101408.41
2023-01-01T14:56:27.722Z,101410.66
2023-01-01T14:59:06.286Z,101409.94
2023-01-01T15:01:34.248Z,101403.41
2023-01-01T15:04:04.906Z,101407.22
2023-01-01T15:06:33.583Z,101404.41
2023-01-01T15:09:02.878Z,101412.63
2023-01-01T15:11:30.838Z,101420.31
2023-01-01T15:14:01.343Z,101425.44
2023-01-01T15:16:37.978Z,101444.19
2023-01-01T15:19:18.518Z,101442.50
2023-01-01T15:21:47.524Z,101459.69
2023-01-01T15:24:22.200Z,101454.88
2023-01-01T15:26:53.094Z,101459.41
2023-01-01T15:29:28.370Z,101464.22
2023-01-01T15:31:59.167Z,101461.84
2023-01-01T15:34:30.541Z,101463.56
2023-01-01T15:37:09.207Z,101465.28
2023-01-01T15:39:48.300Z,101468.56
2023-01-01T15:42:34.226Z,101466.00
2023-01-01T15:45:16.483Z,101470.66
2023-01-01T15:47:45.810Z,101495.38
2023-01-01T15:50:22.647Z,101492.09
2023-01-01T15:52:55.657Z,101493.41
2023-01-01T15:55:29.036Z,101488.94
2023-01-01T15:57:57.642Z,101483.41
2023-01-01T16:00:28.282Z,101480.28
2023-01-01T16:03:00.741Z,101486.34
2023-01-01T16:05:29.286Z,101490.03
2023-01-01T16:08:01.975Z,101504.56
2023-01-01T16:10:31.824Z,101504.09
2023-01-01T16:12:59.993Z,101510.22
2023-01-01T16:15:28.069Z,101511.47
2023-01-01T16:17:56.363Z,101516.44
2023-01-01T16:20:25.341Z,101515.38
2023-01-01T16:22:53.567Z,101502.84
2023-01-01T16:25:23.809Z,101514.53
2023-01-01T16:27:53.126Z,101507.53
2023-01-01T16:30:25.948Z,101507.13
2023-01-01T16:32:53.880Z,101501.69
2023-01-01T16:35:22.202Z,101506.09
2023-01-01T16:37:50.187Z,101506.50
2023-01-01T16:40:18.573Z,101511.28
2023-01-01T16:42:46.629Z,101518.91
2023-01-01T16:45:19.745Z,101512.41
2023-01-01T16:47:48.004Z,101509.19
2023-01-01T16:50:16.455Z,101519.06
2023-01-01T16:52:45.091Z,101524.00
2023-01-01T16:55:13.668Z,101524.19
2023-01-01T16:57:41.555Z,101527.28
2023-01-01T17:00:10.691Z,101529.56
2023-01-01T17:02:40.077Z,101533.19
2023-01-01T17:05:08.926Z,101540.03
2023-01-01T17:07:37.174Z,101549.72
2023-01-01T17:10:05.724Z,101543.13
2023-01-01T17:12:33.615Z,101547.66
2023-01-01T17:15:01.483Z,101544.84
2023-01-01T17:17:29.372Z,101536.97
2023-01-01T17:19:58.605Z,101550.88
2023-01-01T17:22:30.684Z,101542.53
2023-01-01T17:25:01.857Z,101553.72
2023-01-01T17:27:29.712Z,101549.13
2023-01-01T17:29:57.583Z,101551.22
2023-01-01T17:32:25.443Z,101539.19
2023-01-01T17:34:53.474Z,101542.88
2023-01-01T17:37:23.786Z,101542.44
2023-01-01T17:39:51.680Z,101543.06
2023-01-01T17:42:19.858Z,101539.25
2023-01-01T17:44:47.797Z,101536.03
2023-01-01T17:47:15.675Z,101546.22
2023-01-01T17:49:43.906Z,101547.34
2023-01-01T17:52:11.969Z,101549.78
2023-01-01T17:54:41.434Z,101532.75
2023-01-01T17:57:09.448Z,101539.19
2023-01-01T17:59:37.438Z,101540.78
2023-01-01T18:02:06.145Z,101539.50
2023-01-01T18:04:34.185Z,101538.94
2023-01-01T18:07:06.513Z,101543.25
2023-01-01T18:09:36.762Z,101548.13
2023-01-01T18:12:07.844Z,101547.72
2023-01-01T18:14:35.746Z,101546.16
2023-01-01T18:17:03.637Z,101541.53
2023-01-01T18:19:32.425Z,101544.22
2023-01-01T18:22:00.293Z,101546.25
2023-01-01T18:24:28.242Z,101547.69
2023-01-01T18:26:56.764Z,101544.22
2023-01-01T18:29:29.304Z,101552.19
2023-01-01T18:31:57.649Z,101544.03
2023-01-01T18:34:26.641Z,101537.72
2023-01-01T18:36:56.828Z,101540.28
2023-01-01T18:39:28.242Z,101543.03
2023-01-01T18:42:11.097Z,101543.16
2023-01-01T18:44:41.270Z,101554.25
2023-01-01T18:47:14.832Z,101550.97
2023-01-01T18:49:48.792Z,101554.03
2023-01-01T18:52:22.225Z,101561.53
2023-01-01T18:54:52.027Z,101559.56
2023-01-01T18:57:28.967Z,101556.72
2023-01-01T19:00:00.539Z,101570.59
2023-01-01T19:02:35.493Z,101568.16
2023-01-01T19:05:18.688Z,101563.19
2023-01-01T19:07:52.424Z,101570.59
2023-01-01T19:10:24.139Z,101571.53
2023-01-01T19:12:54.900Z,101569.19
2023-01-01T19:15:24.537Z,101560.34
2023-01-01T19:17:54.841Z,101557.28
2023-01-01T19:20:24.714Z,101561.19
2023-01-01T19:22:53.428Z,101551.75
2023-01-01T19:25:37.741Z,101559.50
2023-01-01T19:28:26.925Z,101558.56
2023-01-01T19:30:56.222Z,101565.88
2023-01-01T19:33:24.189Z,101562.44
2023-01-01T19:35:53.345Z,101551.91
2023-01-01T19:38:21.725Z,101553.19
2023-01-01T19:40:49.829Z,101557.06
2023-01-01T19:43:17.709Z,101548.09
2023-01-01T19:45:45.601Z,101551.50
2023-01-01T19:48:14.815Z,101558.03
2023-01-01T19:50:42.699Z,101557.78
2023-01-01T19:53:10.528Z,101552.53
2023-01-01T19:55:40.094Z,101552.34
2023-01-01T19:58:07.943Z,101544.22
2023-01-01T20:00:35.951Z,101547.63
2023-01-01T20:03:43.005Z,101534.97
2023-01-01T20:05:53.283Z,101527.81
2023-01-01T20:08:22.092Z,101518.78
2023-01-01T20:10:50.329Z,101534.72
2023-01-01T20:13:18.528Z,101529.38
2023-01-01T20:15:47.108Z,101533.19
2023-01-01T20:18:15.180Z,101529.66
2023-01-01T20:21:03.276Z,101519.28
2023-01-01T20:23:32.745Z,101513.59
2023-01-01T20:26:00.605Z,101513.22
2023-01-01T20:28:46.144Z,101514.59
2023-01-01T20:31:14.072Z,101515.31
2023-01-01T20:33:41.931Z,101515.06
2023-01-01T20:36:27.529Z,101515.13
2023-01-01T20:38:56.897Z,101505.13
2023-01-01T20:41:24.776Z,101502.25
2023-01-01T20:43:56.620Z,101506.72
2023-01-01T20:46:25.241Z,101508.09
2023-01-01T20:48:53.597Z,101512.13
2023-01-01T20:51:23.629Z,101505.88
2023-01-01T20:53:52.562Z,101500.66
2023-01-01T20:56:21.828Z,101495.59
2023-01-01T20:58:53.304Z,101506.31
2023-01-01T21:01:28.125Z,101496.44
2023-01-01T21:03:56.094Z,101498.22
2023-01-01T21:06:24.858Z,101504.47
2023-01-01T21:08:53.791Z,101502.44
2023-01-01T21:11:23.088Z,101510.16
2023-01-01T21:13:51.209Z,101515.66
2023-01-01T21:16:20.890Z,101511.63
2023-01-01T21:18:50.485Z,101499.03
2023-01-01T21:21:21.953Z,101493.13
2023-01-01T21:23:52.262Z,101487.78
2023-01-01T21:26:28.046Z,101471.31
2023-01-01T21:28:56.048Z,101486.94
2023-01-01T21:31:24.027Z,101485.16
2023-01-01T21:33:51.988Z,101495.94
2023-01-01T21:36:22.492Z,101501.41
2023-01-01T21:38:52.137Z,101509.97
2023-01-01T21:41:23.759Z,101498.41
2023-01-01T21:43:55.238Z,101497.75
2023-01-01T21:46:40.982Z,101503.31
2023-01-01T21:49:19.760Z,101501.16
2023-01-01T21:51:51.817Z,101499.88
2023-01-01T21:54:24.214Z,101494.00
2023-01-01T21:56:58.099Z,101506.06
2023-01-01T21:59:33.791Z,101521.56
2023-01-01T22:02:31.395Z,101520.63
2023-01-01T22:05:01.161Z,101518.66
2023-01-01T22:07:57.212Z,101508.09
2023-01-01T22:10:22.742Z,101506.44
2023-01-01T22:12:54.870Z,101505.13
2023-01-01T22:15:30.438Z,101508.56
2023-01-01T22:18:14.939Z,101506.97
2023-01-01T22:20:45.056Z,101512.88
2023-01-01T22:23:27.881Z,101509.72
2023-01-01T22:25:55.802Z,101507.41
2023-01-01T22:28:25.943Z,101508.88
2023-01-01T22:30:59.143Z,101495.34
2023-01-01T22:33:34.404Z,101496.78
2023-01-01T22:36:02.335Z,101489.81
2023-01-01T22:38:34.534Z,101489.03
2023-01-01T22:41:02.687Z,101497.72
2023-01-01T22:43:35.466Z,101497.00
2023-01-01T22:46:14.321Z,101488.03
2023-01-01T22:48:42.275Z,101490.19
2023-01-01T22:51:16.527Z,101486.47
2023-01-01T22:53:44.422Z,101478.19
2023-01-01T22:56:12.362Z,101492.03
2023-01-01T22:58:40.426Z,101486.47
2023-01-01T23:01:09.682Z,101476.28
2023-01-01T23:03:37.622Z,101467.72
2023-01-01T23:06:06.078Z,101458.06
2023-01-01T23:08:34.002Z,101448.81
2023-01-01T23:11:02.634Z,101450.19
2023-01-01T23:13:48.151Z,101445.56
2023-01-01T23:16:17.523Z,101448.75
2023-01-01T23:18:45.867Z,101448.19
2023-01-01T23:21:26.042Z,101443.81
2023-01-01T23:23:57.079Z,101443.09
2023-01-01T23:26:25.931Z,101425.41
2023-01-01T23:28:55.406Z,101423.56
2023-01-01T23:31:28.621Z,101427.19
2023-01-01T23:33:58.328Z,101417.66
2023-01-01T23:36:27.517Z,101414.25
2023-01-01T23:38:55.558Z,101411.28
2023-01-01T23:41:23.744Z,101414.19
2023-01-01T23:43:51.727Z,101414.09
2023-01-01T23:46:20.188Z,101402.22
2023-01-01T23:48:50.208Z,101399.69
2023-01-01T23:51:18.517Z,101395.72
2023-01-01T23:53:46.542Z,101391.97
2023-01-01T23:56:14.588Z,101381.56
2023-01-01T23:58:42.471Z,101386.06
